sensor_id;sensor_type;location;lat;lon;timestamp;pressure;altitude;pressure_sealevel;temperature;humidity
34374;BME280;20637;55.770;37.592;2023-06-14T00:02:02;100079.94;;;16.71;42.30
34374;BME280;20637;55.770;37.592;2023-06-14T00:04:28;100078.81;;;16.65;42.94
34374;BME280;20637;55.770;37.592;2023-06-14T00:06:54;100080.25;;;16.61;42.93
34374;BME280;20637;55.770;37.592;2023-06-14T00:09:22;100080.00;;;16.56;42.92
34374;BME280;20637;55.770;37.592;2023-06-14T00:11:47;100080.19;;;16.54;42.70
34374;BME280;20637;55.770;37.592;2023-06-14T00:14:13;100083.09;;;16.53;42.87
34374;BME280;20637;55.770;37.592;2023-06-14T00:16:39;100078.47;;;16.53;42.97
34374;BME280;20637;55.770;37.592;2023-06-14T00:19:08;100073.66;;;16.49;42.93
34374;BME280;20637;55.770;37.592;2023-06-14T00:21:33;100084.91;;;16.46;43.11
34374;BME280;20637;55.770;37.592;2023-06-14T00:24:00;100081.72;;;16.42;43.11
34374;BME280;20637;55.770;37.592;2023-06-14T00:26:26;100080.66;;;16.37;43.02
34374;BME280;20637;55.770;37.592;2023-06-14T00:28:53;100080.19;;;16.33;43.01
34374;BME280;20637;55.770;37.592;2023-06-14T00:31:18;100088.56;;;16.32;43.55
34374;BME280;20637;55.770;37.592;2023-06-14T00:33:44;100075.50;;;16.27;43.42
34374;BME280;20637;55.770;37.592;2023-06-14T00:36:11;100080.31;;;16.25;43.68
34374;BME280;20637;55.770;37.592;2023-06-14T00:38:36;100079.66;;;16.23;43.38
34374;BME280;20637;55.770;37.592;2023-06-14T00:41:02;100081.75;;;16.21;43.42
34374;BME280;20637;55.770;37.592;2023-06-14T00:43:27;100086.53;;;16.19;43.68
34374;BME280;20637;55.770;37.592;2023-06-14T00:45:53;100078.75;;;16.16;43.82
34374;BME280;20637;55.770;37.592;2023-06-14T00:48:18;100079.31;;;16.11;43.81
34374;BME280;20637;55.770;37.592;2023-06-14T00:50:44;100084.97;;;16.10;43.46
34374;BME280;20637;55.770;37.592;2023-06-14T00:53:15;100075.97;;;16.09;43.73
34374;BME280;20637;55.770;37.592;2023-06-14T00:55:40;100072.56;;;16.07;44.06
34374;BME280;20637;55.770;37.592;2023-06-14T00:58:06;100083.69;;;16.06;43.87
34374;BME280;20637;55.770;37.592;2023-06-14T01:00:33;100077.38;;;16.05;43.90
34374;BME280;20637;55.770;37.592;2023-06-14T01:02:59;100086.59;;;16.04;43.90
34374;BME280;20637;55.770;37.592;2023-06-14T01:05:24;100075.69;;;16.04;44.04
34374;BME280;20637;55.770;37.592;2023-06-14T01:13:05;100075.63;;;15.98;44.22
34374;BME280;20637;55.770;37.592;2023-06-14T01:15:32;100073.09;;;15.96;44.31
34374;BME280;20637;55.770;37.592;2023-06-14T01:17:59;100074.56;;;15.99;44.14
34374;BME280;20637;55.770;37.592;2023-06-14T01:20:29;100078.97;;;16.00;44.23
34374;BME280;20637;55.770;37.592;2023-06-14T01:22:56;100076.25;;;16.00;44.30
34374;BME280;20637;55.770;37.592;2023-06-14T01:25:22;100075.81;;;15.96;44.37
34374;BME280;20637;55.770;37.592;2023-06-14T01:28:09;100076.19;;;15.93;44.57
34374;BME280;20637;55.770;37.592;2023-06-14T01:30:39;100070.28;;;15.90;44.27
34374;BME280;20637;55.770;37.592;2023-06-14T01:33:13;100082.22;;;15.89;44.63
34374;BME280;20637;55.770;37.592;2023-06-14T01:35:41;100080.50;;;15.88;44.46
34374;BME280;20637;55.770;37.592;2023-06-14T01:38:07;100082.59;;;15.86;44.91
34374;BME280;20637;55.770;37.592;2023-06-14T01:40:33;100086.16;;;15.86;44.76
34374;BME280;20637;55.770;37.592;2023-06-14T01:42:59;100088.91;;;15.86;45.09
34374;BME280;20637;55.770;37.592;2023-06-14T01:45:26;100094.50;;;15.85;44.99
34374;BME280;20637;55.770;37.592;2023-06-14T01:47:52;100090.78;;;15.86;44.79
34374;BME280;20637;55.770;37.592;2023-06-14T01:50:19;100089.75;;;15.87;44.66
34374;BME280;20637;55.770;37.592;2023-06-14T01:52:45;100091.41;;;15.88;44.83
34374;BME280;20637;55.770;37.592;2023-06-14T01:55:11;100083.06;;;15.89;44.83
34374;BME280;20637;55.770;37.592;2023-06-14T01:57:37;100093.78;;;15.91;45.01
34374;BME280;20637;55.770;37.592;2023-06-14T02:00:04;100082.03;;;15.90;44.74
34374;BME280;20637;55.770;37.592;2023-06-14T02:02:38;100088.69;;;15.88;44.97
34374;BME280;20637;55.770;37.592;2023-06-14T02:05:04;100091.63;;;15.86;45.11
34374;BME280;20637;55.770;37.592;2023-06-14T02:07:30;100083.91;;;15.90;45.06
34374;BME280;20637;55.770;37.592;2023-06-14T02:09:55;100077.22;;;15.92;45.00
34374;BME280;20637;55.770;37.592;2023-06-14T02:12:22;100079.56;;;15.95;45.16
34374;BME280;20637;55.770;37.592;2023-06-14T02:14:47;100083.59;;;15.99;44.88
34374;BME280;20637;55.770;37.592;2023-06-14T02:17:14;100082.56;;;16.00;45.04
34374;BME280;20637;55.770;37.592;2023-06-14T02:19:40;100084.88;;;16.03;44.98
34374;BME280;20637;55.770;37.592;2023-06-14T02:22:05;100082.84;;;16.05;45.08
34374;BME280;20637;55.770;37.592;2023-06-14T02:24:33;100087.72;;;16.10;44.90
34374;BME280;20637;55.770;37.592;2023-06-14T02:26:59;100076.59;;;16.11;45.00
34374;BME280;20637;55.770;37.592;2023-06-14T02:29:25;100077.91;;;16.15;44.76
34374;BME280;20637;55.770;37.592;2023-06-14T02:31:50;100079.38;;;16.18;44.90
34374;BME280;20637;55.770;37.592;2023-06-14T02:34:19;100078.34;;;16.19;44.99
34374;BME280;20637;55.770;37.592;2023-06-14T02:36:47;100083.63;;;16.20;44.84
34374;BME280;20637;55.770;37.592;2023-06-14T02:39:13;100083.41;;;16.22;45.01
34374;BME280;20637;55.770;37.592;2023-06-14T02:41:38;100087.44;;;16.26;45.05
34374;BME280;20637;55.770;37.592;2023-06-14T02:44:04;100087.88;;;16.30;44.99
34374;BME280;20637;55.770;37.592;2023-06-14T02:46:29;100096.34;;;16.35;44.79
34374;BME280;20637;55.770;37.592;2023-06-14T02:48:55;100093.44;;;16.36;44.82
34374;BME280;20637;55.770;37.592;2023-06-14T02:51:20;100097.84;;;16.37;44.81
34374;BME280;20637;55.770;37.592;2023-06-14T02:53:46;100098.28;;;16.41;45.15
34374;BME280;20637;55.770;37.592;2023-06-14T02:56:11;100098.94;;;16.43;45.55
34374;BME280;20637;55.770;37.592;2023-06-14T02:58:37;100095.19;;;16.44;44.82
34374;BME280;20637;55.770;37.592;2023-06-14T03:01:04;100096.47;;;16.48;45.38
34374;BME280;20637;55.770;37.592;2023-06-14T03:03:33;100101.94;;;16.48;45.22
34374;BME280;20637;55.770;37.592;2023-06-14T03:05:58;100105.94;;;16.52;45.12
34374;BME280;20637;55.770;37.592;2023-06-14T03:08:31;100105.41;;;16.56;45.11
34374;BME280;20637;55.770;37.592;2023-06-14T03:11:01;100109.03;;;16.63;45.10
34374;BME280;20637;55.770;37.592;2023-06-14T03:13:28;100108.44;;;16.68;45.10
34374;BME280;20637;55.770;37.592;2023-06-14T03:15:58;100106.34;;;16.70;45.25
34374;BME280;20637;55.770;37.592;2023-06-14T03:18:24;100100.91;;;16.70;44.99
34374;BME280;20637;55.770;37.592;2023-06-14T03:20:50;100107.66;;;16.74;45.05
34374;BME280;20637;55.770;37.592;2023-06-14T03:23:17;100107.25;;;16.77;45.17
34374;BME280;20637;55.770;37.592;2023-06-14T03:25:43;100107.69;;;16.81;45.11
34374;BME280;20637;55.770;37.592;2023-06-14T03:28:12;100105.41;;;16.84;44.97
34374;BME280;20637;55.770;37.592;2023-06-14T03:30:37;100101.06;;;16.90;44.96
34374;BME280;20637;55.770;37.592;2023-06-14T03:33:04;100101.78;;;16.98;44.59
34374;BME280;20637;55.770;37.592;2023-06-14T03:35:33;100099.09;;;17.05;44.80
34374;BME280;20637;55.770;37.592;2023-06-14T03:37:58;100098.94;;;17.13;44.74
34374;BME280;20637;55.770;37.592;2023-06-14T03:40:23;100104.25;;;17.21;44.82
34374;BME280;20637;55.770;37.592;2023-06-14T03:42:58;100098.63;;;17.29;44.85
34374;BME280;20637;55.770;37.592;2023-06-14T03:45:24;100094.91;;;17.37;44.59
34374;BME280;20637;55.770;37.592;2023-06-14T03:47:50;100091.34;;;17.43;44.42
34374;BME280;20637;55.770;37.592;2023-06-14T03:50:16;100089.06;;;17.46;44.87
34374;BME280;20637;55.770;37.592;2023-06-14T03:52:42;100087.41;;;17.52;44.54
34374;BME280;20637;55.770;37.592;2023-06-14T03:55:09;100092.09;;;17.58;44.08
34374;BME280;20637;55.770;37.592;2023-06-14T03:57:36;100096.34;;;17.67;44.12
34374;BME280;20637;55.770;37.592;2023-06-14T04:00:06;100101.84;;;17.74;44.22
34374;BME280;20637;55.770;37.592;2023-06-14T04:02:39;100103.34;;;17.83;44.37
34374;BME280;20637;55.770;37.592;2023-06-14T04:05:05;100102.53;;;17.89;43.89
34374;BME280;20637;55.770;37.592;2023-06-14T04:07:35;100108.03;;;17.95;44.17
34374;BME280;20637;55.770;37.592;2023-06-14T04:10:08;100105.72;;;17.99;43.88
34374;BME280;20637;55.770;37.592;2023-06-14T04:12:33;100114.38;;;18.02;43.97
34374;BME280;20637;55.770;37.592;2023-06-14T04:14:59;100106.16;;;18.02;44.06
34374;BME280;20637;55.770;37.592;2023-06-14T04:17:29;100098.16;;;18.01;43.91
34374;BME280;20637;55.770;37.592;2023-06-14T04:19:54;100106.59;;;18.06;44.03
34374;BME280;20637;55.770;37.592;2023-06-14T04:22:20;100098.41;;;18.13;44.13
34374;BME280;20637;55.770;37.592;2023-06-14T04:24:45;100100.53;;;18.17;43.49
34374;BME280;20637;55.770;37.592;2023-06-14T04:27:11;100094.66;;;18.20;43.73
34374;BME280;20637;55.770;37.592;2023-06-14T04:29:37;100102.03;;;18.26;44.07
34374;BME280;20637;55.770;37.592;2023-06-14T04:32:08;100101.19;;;18.32;43.58
34374;BME280;20637;55.770;37.592;2023-06-14T04:34:37;100093.66;;;18.41;43.84
34374;BME280;20637;55.770;37.592;2023-06-14T04:37:03;100091.19;;;18.52;43.32
34374;BME280;20637;55.770;37.592;2023-06-14T04:39:35;100090.34;;;18.59;43.34
34374;BME280;20637;55.770;37.592;2023-06-14T04:42:01;100080.91;;;18.61;43.58
34374;BME280;20637;55.770;37.592;2023-06-14T04:44:29;100093.72;;;18.67;43.22
34374;BME280;20637;55.770;37.592;2023-06-14T04:46:58;100090.78;;;18.75;43.45
34374;BME280;20637;55.770;37.592;2023-06-14T04:49:24;100079.63;;;18.83;43.11
34374;BME280;20637;55.770;37.592;2023-06-14T04:51:50;100091.19;;;18.85;42.93
34374;BME280;20637;55.770;37.592;2023-06-14T04:54:27;100088.47;;;18.92;43.03
34374;BME280;20637;55.770;37.592;2023-06-14T04:56:53;100081.28;;;18.97;42.98
34374;BME280;20637;55.770;37.592;2023-06-14T04:59:21;100085.50;;;19.00;42.88
34374;BME280;20637;55.770;37.592;2023-06-14T05:01:50;100093.69;;;19.00;42.65
34374;BME280;20637;55.770;37.592;2023-06-14T05:04:17;100076.88;;;19.03;42.62
34374;BME280;20637;55.770;37.592;2023-06-14T05:06:44;100088.66;;;19.10;42.78
34374;BME280;20637;55.770;37.592;2023-06-14T05:09:15;100079.38;;;19.18;42.54
34374;BME280;20637;55.770;37.592;2023-06-14T05:11:43;100086.72;;;19.24;42.41
34374;BME280;20637;55.770;37.592;2023-06-14T05:14:10;100080.63;;;19.28;42.35
34374;BME280;20637;55.770;37.592;2023-06-14T05:16:36;100087.53;;;19.31;42.34
34374;BME280;20637;55.770;37.592;2023-06-14T05:19:02;100090.09;;;19.26;42.42
34374;BME280;20637;55.770;37.592;2023-06-14T05:21:28;100082.75;;;19.26;42.21
34374;BME280;20637;55.770;37.592;2023-06-14T05:23:53;100076.41;;;19.32;42.26
34374;BME280;20637;55.770;37.592;2023-06-14T05:26:19;100080.81;;;19.40;42.30
34374;BME280;20637;55.770;37.592;2023-06-14T05:28:44;100081.44;;;19.48;42.17
34374;BME280;20637;55.770;37.592;2023-06-14T05:31:10;100087.75;;;19.56;42.11
34374;BME280;20637;55.770;37.592;2023-06-14T05:33:35;100082.22;;;19.62;41.95
34374;BME280;20637;55.770;37.592;2023-06-14T05:36:01;100077.59;;;19.63;41.92
34374;BME280;20637;55.770;37.592;2023-06-14T05:38:26;100084.97;;;19.69;41.82
34374;BME280;20637;55.770;37.592;2023-06-14T05:40:52;100079.47;;;19.75;41.77
34374;BME280;20637;55.770;37.592;2023-06-14T05:43:18;100075.84;;;19.81;41.57
34374;BME280;20637;55.770;37.592;2023-06-14T05:45:44;100080.06;;;19.84;41.56
34374;BME280;20637;55.770;37.592;2023-06-14T05:48:09;100084.44;;;19.91;41.39
34374;BME280;20637;55.770;37.592;2023-06-14T05:50:35;100089.69;;;19.93;41.47
34374;BME280;20637;55.770;37.592;2023-06-14T05:53:00;100089.69;;;20.00;41.27
34374;BME280;20637;55.770;37.592;2023-06-14T05:55:25;100092.59;;;20.05;40.98
34374;BME280;20637;55.770;37.592;2023-06-14T05:57:51;100087.09;;;20.05;40.96
34374;BME280;20637;55.770;37.592;2023-06-14T06:00:17;100089.03;;;20.04;41.10
34374;BME280;20637;55.770;37.592;2023-06-14T06:02:43;100092.78;;;20.10;41.11
34374;BME280;20637;55.770;37.592;2023-06-14T06:05:09;100092.75;;;20.16;40.85
34374;BME280;20637;55.770;37.592;2023-06-14T06:07:35;100088.28;;;20.22;40.58
34374;BME280;20637;55.770;37.592;2023-06-14T06:10:00;100092.03;;;20.27;40.48
34374;BME280;20637;55.770;37.592;2023-06-14T06:12:26;100087.19;;;20.36;40.28
34374;BME280;20637;55.770;37.592;2023-06-14T06:14:51;100083.19;;;20.38;40.39
34374;BME280;20637;55.770;37.592;2023-06-14T06:17:17;100088.81;;;20.43;40.30
34374;BME280;20637;55.770;37.592;2023-06-14T06:19:42;100079.28;;;20.53;39.77
34374;BME280;20637;55.770;37.592;2023-06-14T06:22:08;100081.09;;;20.59;39.15
34374;BME280;20637;55.770;37.592;2023-06-14T06:24:33;100093.31;;;20.63;39.44
34374;BME280;20637;55.770;37.592;2023-06-14T06:26:58;100084.44;;;20.67;39.19
34374;BME280;20637;55.770;37.592;2023-06-14T06:29:24;100080.41;;;20.70;38.70
34374;BME280;20637;55.770;37.592;2023-06-14T06:31:49;100084.59;;;20.72;38.60
34374;BME280;20637;55.770;37.592;2023-06-14T06:34:15;100072.91;;;20.83;38.45
34374;BME280;20637;55.770;37.592;2023-06-14T06:36:40;100084.28;;;20.87;37.62
34374;BME280;20637;55.770;37.592;2023-06-14T06:39:07;100076.88;;;20.87;38.29
34374;BME280;20637;55.770;37.592;2023-06-14T06:41:38;100074.34;;;20.86;38.50
34374;BME280;20637;55.770;37.592;2023-06-14T06:44:08;100081.06;;;20.90;38.52
34374;BME280;20637;55.770;37.592;2023-06-14T06:46:37;100078.28;;;20.97;38.44
34374;BME280;20637;55.770;37.592;2023-06-14T06:49:09;100077.38;;;21.03;38.07
34374;BME280;20637;55.770;37.592;2023-06-14T06:51:37;100067.00;;;21.11;38.03
34374;BME280;20637;55.770;37.592;2023-06-14T06:54:02;100064.38;;;21.16;37.58
34374;BME280;20637;55.770;37.592;2023-06-14T06:56:28;100063.97;;;21.19;37.17
34374;BME280;20637;55.770;37.592;2023-06-14T06:58:53;100078.91;;;21.23;36.90
34374;BME280;20637;55.770;37.592;2023-06-14T07:01:19;100070.59;;;21.30;36.73
34374;BME280;20637;55.770;37.592;2023-06-14T07:03:45;100066.41;;;21.27;37.09
34374;BME280;20637;55.770;37.592;2023-06-14T07:06:10;100077.16;;;21.29;36.94
34374;BME280;20637;55.770;37.592;2023-06-14T07:08:36;100066.41;;;21.27;37.00
34374;BME280;20637;55.770;37.592;2023-06-14T07:11:04;100065.31;;;21.28;37.11
34374;BME280;20637;55.770;37.592;2023-06-14T07:13:30;100062.53;;;21.35;36.87
34374;BME280;20637;55.770;37.592;2023-06-14T07:15:57;100056.75;;;21.43;36.81
34374;BME280;20637;55.770;37.592;2023-06-14T07:18:22;100065.50;;;21.52;36.11
34374;BME280;20637;55.770;37.592;2023-06-14T07:20:48;100068.41;;;21.57;35.97
34374;BME280;20637;55.770;37.592;2023-06-14T07:23:13;100067.72;;;21.61;36.10
34374;BME280;20637;55.770;37.592;2023-06-14T07:25:38;100067.41;;;21.69;36.05
34374;BME280;20637;55.770;37.592;2023-06-14T07:28:04;100069.59;;;21.79;36.40
34374;BME280;20637;55.770;37.592;2023-06-14T07:30:29;100059.34;;;21.86;36.18
34374;BME280;20637;55.770;37.592;2023-06-14T07:32:55;100058.47;;;21.92;36.01
34374;BME280;20637;55.770;37.592;2023-06-14T07:35:21;100060.53;;;21.97;36.12
34374;BME280;20637;55.770;37.592;2023-06-14T07:37:47;100063.19;;;22.03;35.61
34374;BME280;20637;55.770;37.592;2023-06-14T07:40:13;100058.06;;;22.07;35.96
34374;BME280;20637;55.770;37.592;2023-06-14T07:42:39;100056.75;;;22.09;35.62
34374;BME280;20637;55.770;37.592;2023-06-14T07:45:04;100049.50;;;22.15;35.55
34374;BME280;20637;55.770;37.592;2023-06-14T07:47:30;100055.38;;;22.18;35.29
34374;BME280;20637;55.770;37.592;2023-06-14T07:49:55;100057.41;;;22.23;35.02
34374;BME280;20637;55.770;37.592;2023-06-14T07:52:21;100057.16;;;22.24;35.07
34374;BME280;20637;55.770;37.592;2023-06-14T07:54:47;100057.31;;;22.29;35.32
34374;BME280;20637;55.770;37.592;2023-06-14T07:57:12;100055.19;;;22.31;34.93
34374;BME280;20637;55.770;37.592;2023-06-14T07:59:37;100050.28;;;22.33;34.92
34374;BME280;20637;55.770;37.592;2023-06-14T08:02:03;100051.47;;;22.38;35.18
34374;BME280;20637;55.770;37.592;2023-06-14T08:04:29;100061.09;;;22.47;35.17
34374;BME280;20637;55.770;37.592;2023-06-14T08:06:54;100061.81;;;22.54;34.70
34374;BME280;20637;55.770;37.592;2023-06-14T08:09:19;100052.72;;;22.53;34.96
34374;BME280;20637;55.770;37.592;2023-06-14T08:11:45;100048.75;;;22.49;34.97
34374;BME280;20637;55.770;37.592;2023-06-14T08:14:10;100059.53;;;22.51;34.48
34374;BME280;20637;55.770;37.592;2023-06-14T08:16:36;100062.19;;;22.57;34.05
34374;BME280;20637;55.770;37.592;2023-06-14T08:19:02;100062.03;;;22.52;34.49
34374;BME280;20637;55.770;37.592;2023-06-14T08:21:28;100050.81;;;22.54;34.61
34374;BME280;20637;55.770;37.592;2023-06-14T08:23:54;100043.25;;;22.49;34.21
34374;BME280;20637;55.770;37.592;2023-06-14T08:26:20;100048.03;;;22.42;34.48
34374;BME280;20637;55.770;37.592;2023-06-14T08:28:46;100055.34;;;22.48;34.44
34374;BME280;20637;55.770;37.592;2023-06-14T08:31:11;100056.47;;;22.59;34.43
34374;BME280;20637;55.770;37.592;2023-06-14T08:33:37;100065.13;;;22.74;34.23
34374;BME280;20637;55.770;37.592;2023-06-14T08:36:04;100053.88;;;22.87;33.77
34374;BME280;20637;55.770;37.592;2023-06-14T08:38:29;100054.00;;;22.92;33.66
34374;BME280;20637;55.770;37.592;2023-06-14T08:40:57;100051.75;;;23.01;33.71
34374;BME280;20637;55.770;37.592;2023-06-14T08:43:22;100041.69;;;23.06;33.51
34374;BME280;20637;55.770;37.592;2023-06-14T08:45:48;100038.56;;;23.03;32.92
34374;BME280;20637;55.770;37.592;2023-06-14T08:48:14;100041.09;;;22.93;33.12
34374;BME280;20637;55.770;37.592;2023-06-14T08:50:42;100032.00;;;22.92;33.36
34374;BME280;20637;55.770;37.592;2023-06-14T08:53:08;100035.47;;;22.99;33.42
34374;BME280;20637;55.770;37.592;2023-06-14T08:55:36;100023.50;;;23.05;33.41
34374;BME280;20637;55.770;37.592;2023-06-14T08:58:04;100028.53;;;23.20;33.32
34374;BME280;20637;55.770;37.592;2023-06-14T09:00:30;100028.88;;;23.23;33.14
34374;BME280;20637;55.770;37.592;2023-06-14T09:02:56;100017.50;;;23.20;33.06
34374;BME280;20637;55.770;37.592;2023-06-14T09:05:24;100022.16;;;23.19;33.06
34374;BME280;20637;55.770;37.592;2023-06-14T09:07:50;100025.16;;;23.18;32.85
34374;BME280;20637;55.770;37.592;2023-06-14T09:10:15;100030.44;;;23.19;32.96
34374;BME280;20637;55.770;37.592;2023-06-14T09:12:41;100023.59;;;23.34;33.06
34374;BME280;20637;55.770;37.592;2023-06-14T09:15:07;100014.59;;;23.38;32.60
34374;BME280;20637;55.770;37.592;2023-06-14T09:17:37;100008.75;;;23.46;32.89
34374;BME280;20637;55.770;37.592;2023-06-14T09:20:03;100017.69;;;23.65;32.72
34374;BME280;20637;55.770;37.592;2023-06-14T09:22:36;100016.00;;;23.64;32.17
34374;BME280;20637;55.770;37.592;2023-06-14T09:25:01;100004.41;;;23.62;32.62
34374;BME280;20637;55.770;37.592;2023-06-14T09:27:29;100008.44;;;23.71;32.78
34374;BME280;20637;55.770;37.592;2023-06-14T09:29:54;100013.16;;;23.87;32.58
34374;BME280;20637;55.770;37.592;2023-06-14T09:32:20;100002.69;;;24.01;32.34
34374;BME280;20637;55.770;37.592;2023-06-14T09:34:46;100011.31;;;24.04;32.33
34374;BME280;20637;55.770;37.592;2023-06-14T09:37:11;100013.06;;;24.10;32.08
34374;BME280;20637;55.770;37.592;2023-06-14T09:39:49;100011.41;;;24.09;32.14
34374;BME280;20637;55.770;37.592;2023-06-14T09:42:18;100012.81;;;24.12;32.33
34374;BME280;20637;55.770;37.592;2023-06-14T09:44:47;100003.09;;;24.21;32.42
34374;BME280;20637;55.770;37.592;2023-06-14T09:47:13;100004.75;;;24.22;32.20
34374;BME280;20637;55.770;37.592;2023-06-14T09:49:39;100008.13;;;24.24;32.23
34374;BME280;20637;55.770;37.592;2023-06-14T09:52:06;100008.78;;;24.31;31.97
34374;BME280;20637;55.770;37.592;2023-06-14T09:54:32;100002.44;;;24.31;31.63
34374;BME280;20637;55.770;37.592;2023-06-14T09:57:00;100002.22;;;24.32;31.21
34374;BME280;20637;55.770;37.592;2023-06-14T09:59:26;99993.81;;;24.27;31.14
34374;BME280;20637;55.770;37.592;2023-06-14T10:02:00;99986.56;;;24.21;30.86
34374;BME280;20637;55.770;37.592;2023-06-14T10:04:30;99980.19;;;24.21;31.17
34374;BME280;20637;55.770;37.592;2023-06-14T10:06:56;99983.13;;;24.31;31.37
34374;BME280;20637;55.770;37.592;2023-06-14T10:09:22;99983.81;;;24.38;30.71
34374;BME280;20637;55.770;37.592;2023-06-14T10:11:48;99990.41;;;24.37;31.07
34374;BME280;20637;55.770;37.592;2023-06-14T10:14:14;99978.28;;;24.38;31.05
34374;BME280;20637;55.770;37.592;2023-06-14T10:24:15;99967.84;;;24.40;30.82
34374;BME280;20637;55.770;37.592;2023-06-14T10:26:49;99968.09;;;24.38;31.16
34374;BME280;20637;55.770;37.592;2023-06-14T10:29:15;99966.00;;;24.45;31.19
34374;BME280;20637;55.770;37.592;2023-06-14T10:31:41;99957.31;;;24.53;31.22
34374;BME280;20637;55.770;37.592;2023-06-14T10:34:10;99964.09;;;24.62;31.27
34374;BME280;20637;55.770;37.592;2023-06-14T10:36:36;99957.81;;;24.67;30.98
34374;BME280;20637;55.770;37.592;2023-06-14T10:41:32;99952.75;;;24.81;31.15
34374;BME280;20637;55.770;37.592;2023-06-14T10:46:37;99946.16;;;24.98;30.93
34374;BME280;20637;55.770;37.592;2023-06-14T10:49:02;99943.88;;;24.95;30.81
34374;BME280;20637;55.770;37.592;2023-06-14T10:51:29;99934.53;;;24.96;30.81
34374;BME280;20637;55.770;37.592;2023-06-14T10:53:55;99944.16;;;24.94;30.93
34374;BME280;20637;55.770;37.592;2023-06-14T10:58:50;99938.56;;;24.89;30.52
34374;BME280;20637;55.770;37.592;2023-06-14T11:01:18;99927.66;;;24.82;30.63
34374;BME280;20637;55.770;37.592;2023-06-14T11:03:51;99932.34;;;24.82;30.86
34374;BME280;20637;55.770;37.592;2023-06-14T11:06:21;99926.00;;;24.81;30.83
34374;BME280;20637;55.770;37.592;2023-06-14T11:11:33;99922.50;;;24.69;30.52
34374;BME280;20637;55.770;37.592;2023-06-14T11:13:59;99932.19;;;24.72;30.81
34374;BME280;20637;55.770;37.592;2023-06-14T11:16:25;99936.94;;;24.76;30.31
34374;BME280;20637;55.770;37.592;2023-06-14T11:18:51;99935.03;;;24.77;30.47
34374;BME280;20637;55.770;37.592;2023-06-14T11:21:17;99929.19;;;24.90;30.52
34374;BME280;20637;55.770;37.592;2023-06-14T11:23:48;99928.50;;;24.99;30.20
34374;BME280;20637;55.770;37.592;2023-06-14T11:26:14;99923.25;;;24.98;30.11
34374;BME280;20637;55.770;37.592;2023-06-14T11:28:40;99916.34;;;25.00;29.98
34374;BME280;20637;55.770;37.592;2023-06-14T11:31:06;99930.09;;;24.95;30.13
34374;BME280;20637;55.770;37.592;2023-06-14T11:33:31;99928.44;;;24.94;30.03
34374;BME280;20637;55.770;37.592;2023-06-14T11:35:57;99929.66;;;25.03;30.27
34374;BME280;20637;55.770;37.592;2023-06-14T11:38:23;99920.72;;;24.96;30.19
34374;BME280;20637;55.770;37.592;2023-06-14T11:40:48;99915.28;;;25.01;30.39
34374;BME280;20637;55.770;37.592;2023-06-14T11:43:13;99918.69;;;25.08;30.32
34374;BME280;20637;55.770;37.592;2023-06-14T11:45:39;99909.66;;;25.18;30.52
34374;BME280;20637;55.770;37.592;2023-06-14T11:48:06;99908.97;;;25.28;29.86
34374;BME280;20637;55.770;37.592;2023-06-14T11:50:31;99917.84;;;25.30;29.71
34374;BME280;20637;55.770;37.592;2023-06-14T11:53:01;99899.59;;;25.29;29.65
34374;BME280;20637;55.770;37.592;2023-06-14T11:55:35;99906.41;;;25.43;29.38
34374;BME280;20637;55.770;37.592;2023-06-14T11:58:01;99901.19;;;25.46;29.52
34374;BME280;20637;55.770;37.592;2023-06-14T12:00:26;99901.13;;;25.63;29.69
34374;BME280;20637;55.770;37.592;2023-06-14T12:02:53;99907.91;;;25.77;29.72
34374;BME280;20637;55.770;37.592;2023-06-14T12:05:22;99911.84;;;25.81;29.39
34374;BME280;20637;55.770;37.592;2023-06-14T12:07:47;99907.09;;;25.77;29.09
34374;BME280;20637;55.770;37.592;2023-06-14T12:10:13;99905.69;;;25.74;28.70
34374;BME280;20637;55.770;37.592;2023-06-14T12:12:40;99899.84;;;25.71;29.09
34374;BME280;20637;55.770;37.592;2023-06-14T12:15:06;99911.53;;;25.78;29.12
34374;BME280;20637;55.770;37.592;2023-06-14T12:17:36;99899.47;;;25.89;29.30
34374;BME280;20637;55.770;37.592;2023-06-14T12:20:10;99891.75;;;25.91;29.47
34374;BME280;20637;55.770;37.592;2023-06-14T12:22:39;99896.44;;;25.90;29.18
34374;BME280;20637;55.770;37.592;2023-06-14T12:25:05;99888.72;;;25.92;29.20
34374;BME280;20637;55.770;37.592;2023-06-14T12:27:30;99883.47;;;25.96;29.18
34374;BME280;20637;55.770;37.592;2023-06-14T12:30:02;99876.88;;;25.97;28.80
34374;BME280;20637;55.770;37.592;2023-06-14T12:32:30;99870.94;;;25.83;28.81
34374;BME280;20637;55.770;37.592;2023-06-14T12:34:55;99879.78;;;25.85;29.17
34374;BME280;20637;55.770;37.592;2023-06-14T12:37:20;99865.25;;;25.95;29.35
34374;BME280;20637;55.770;37.592;2023-06-14T12:39:46;99860.94;;;26.09;28.73
34374;BME280;20637;55.770;37.592;2023-06-14T12:42:12;99870.38;;;26.13;29.02
34374;BME280;20637;55.770;37.592;2023-06-14T12:44:39;99858.47;;;26.13;28.47
34374;BME280;20637;55.770;37.592;2023-06-14T12:47:06;99855.63;;;26.02;28.64
34374;BME280;20637;55.770;37.592;2023-06-14T12:49:32;99868.25;;;25.93;29.25
34374;BME280;20637;55.770;37.592;2023-06-14T12:51:58;99853.06;;;25.96;29.31
34374;BME280;20637;55.770;37.592;2023-06-14T12:54:23;99854.50;;;26.03;29.08
34374;BME280;20637;55.770;37.592;2023-06-14T12:56:51;99862.06;;;26.13;28.78
34374;BME280;20637;55.770;37.592;2023-06-14T12:59:17;99851.56;;;26.15;28.85
34374;BME280;20637;55.770;37.592;2023-06-14T13:01:42;99850.47;;;26.16;28.76
34374;BME280;20637;55.770;37.592;2023-06-14T13:04:08;99853.31;;;26.21;28.78